sensor_id;sensor_type;location;lat;lon;timestamp;P1;durP1;ratioP1;P2;durP2;ratioP2
21120;SDS011;12519;43.318;21.898;2023-06-14T00:02:29;7.0;;;6.0;;
21120;SDS011;12519;43.318;21.898;2023-06-14T00:07:06;6.0;;;6.0;;
21120;SDS011;12519;43.318;21.898;2023-06-14T00:11:43;6.0;;;6.0;;
21120;SDS011;12519;43.318;21.898;2023-06-14T00:16:20;7.0;;;6.0;;
21120;SDS011;12519;43.318;21.898;2023-06-14T00:20:57;7.0;;;6.0;;
21120;SDS011;12519;43.318;21.898;2023-06-14T00:25:34;8.0;;;7.0;;
21120;SDS011;12519;43.318;21.898;2023-06-14T00:30:13;8.0;;;7.0;;
21120;SDS011;12519;43.318;21.898;2023-06-14T00:34:50;9.0;;;7.0;;
21120;SDS011;12519;43.318;21.898;2023-06-14T00:39:26;9.0;;;7.0;;
21120;SDS011;12519;43.318;21.898;2023-06-14T00:44:04;10.0;;;7.0;;
21120;SDS011;12519;43.318;21.898;2023-06-14T00:48:42;10.0;;;7.0;;
21120;SDS011;12519;43.318;21.898;2023-06-14T00:53:19;10.0;;;7.0;;
21120;SDS011;12519;43.318;21.898;2023-06-14T00:57:57;9.0;;;6.0;;
21120;SDS011;12519;43.318;21.898;2023-06-14T01:02:36;9.0;;;6.0;;
21120;SDS011;12519;43.318;21.898;2023-06-14T01:07:35;8.0;;;6.0;;
21120;SDS011;12519;43.318;21.898;2023-06-14T01:13:07;8.0;;;6.0;;
21120;SDS011;12519;43.318;21.898;2023-06-14T01:18:00;8.0;;;6.0;;
21120;SDS011;12519;43.318;21.898;2023-06-14T01:22:51;8.0;;;6.0;;
21120;SDS011;12519;43.318;21.898;2023-06-14T01:27:30;7.0;;;5.0;;
21120;SDS011;12519;43.318;21.898;2023-06-14T01:32:08;7.0;;;5.0;;
21120;SDS011;12519;43.318;21.898;2023-06-14T01:36:50;8.0;;;5.0;;
21120;SDS011;12519;43.318;21.898;2023-06-14T01:41:33;8.0;;;5.0;;
21120;SDS011;12519;43.318;21.898;2023-06-14T01:46:15;9.0;;;5.0;;
21120;SDS011;12519;43.318;21.898;2023-06-14T01:50:53;9.0;;;5.0;;
21120;SDS011;12519;43.318;21.898;2023-06-14T01:55:30;10.0;;;6.0;;
21120;SDS011;12519;43.318;21.898;2023-06-14T02:00:09;10.0;;;6.0;;
21120;SDS011;12519;43.318;21.898;2023-06-14T02:04:49;10.0;;;6.0;;
21120;SDS011;12519;43.318;21.898;2023-06-14T02:09:27;10.0;;;6.0;;
21120;SDS011;12519;43.318;21.898;2023-06-14T02:14:04;8.0;;;6.0;;
21120;SDS011;12519;43.318;21.898;2023-06-14T02:18:40;8.0;;;6.0;;
21120;SDS011;12519;43.318;21.898;2023-06-14T02:23:17;8.0;;;6.0;;
21120;SDS011;12519;43.318;21.898;2023-06-14T02:27:54;6.0;;;5.0;;
21120;SDS011;12519;43.318;21.898;2023-06-14T02:32:31;6.0;;;5.0;;
21120;SDS011;12519;43.318;21.898;2023-06-14T02:37:08;8.0;;;6.0;;
21120;SDS011;12519;43.318;21.898;2023-06-14T02:41:44;8.0;;;6.0;;
21120;SDS011;12519;43.318;21.898;2023-06-14T02:46:21;10.0;;;6.0;;
21120;SDS011;12519;43.318;21.898;2023-06-14T02:50:57;10.0;;;6.0;;
21120;SDS011;12519;43.318;21.898;2023-06-14T02:55:34;9.0;;;6.0;;
21120;SDS011;12519;43.318;21.898;2023-06-14T03:00:12;9.0;;;6.0;;
21120;SDS011;12519;43.318;21.898;2023-06-14T03:04:50;8.0;;;6.0;;
21120;SDS011;12519;43.318;21.898;2023-06-14T03:09:26;8.0;;;6.0;;
21120;SDS011;12519;43.318;21.898;2023-06-14T03:14:03;8.0;;;6.0;;
21120;SDS011;12519;43.318;21.898;2023-06-14T03:18:39;8.0;;;6.0;;
21120;SDS011;12519;43.318;21.898;2023-06-14T03:23:15;8.0;;;6.0;;
21120;SDS011;12519;43.318;21.898;2023-06-14T03:27:52;7.0;;;6.0;;
21120;SDS011;12519;43.318;21.898;2023-06-14T03:32:28;7.0;;;6.0;;
21120;SDS011;12519;43.318;21.898;2023-06-14T03:37:05;8.0;;;6.0;;
21120;SDS011;12519;43.318;21.898;2023-06-14T03:41:41;8.0;;;6.0;;
21120;SDS011;12519;43.318;21.898;2023-06-14T03:46:18;10.0;;;7.0;;
21120;SDS011;12519;43.318;21.898;2023-06-14T03:50:54;10.0;;;7.0;;
21120;SDS011;12519;43.318;21.898;2023-06-14T03:55:31;9.0;;;8.0;;
21120;SDS011;12519;43.318;21.898;2023-06-14T04:00:11;9.0;;;8.0;;
21120;SDS011;12519;43.318;21.898;2023-06-14T04:04:50;8.0;;;8.0;;
21120;SDS011;12519;43.318;21.898;2023-06-14T04:09:26;8.0;;;8.0;;
21120;SDS011;12519;43.318;21.898;2023-06-14T04:14:03;8.0;;;7.0;;
21120;SDS011;12519;43.318;21.898;2023-06-14T04:18:41;8.0;;;7.0;;
21120;SDS011;12519;43.318;21.898;2023-06-14T04:23:18;8.0;;;7.0;;
21120;SDS011;12519;43.318;21.898;2023-06-14T04:27:55;7.0;;;6.0;;
21120;SDS011;12519;43.318;21.898;2023-06-14T04:32:32;7.0;;;6.0;;
21120;SDS011;12519;43.318;21.898;2023-06-14T04:37:09;14.0;;;11.0;;
21120;SDS011;12519;43.318;21.898;2023-06-14T04:41:45;14.0;;;11.0;;
21120;SDS011;12519;43.318;21.898;2023-06-14T04:46:22;20.0;;;16.0;;
21120;SDS011;12519;43.318;21.898;2023-06-14T04:50:59;20.0;;;16.0;;
21120;SDS011;12519;43.318;21.898;2023-06-14T04:55:35;20.0;;;16.0;;
21120;SDS011;12519;43.318;21.898;2023-06-14T05:00:13;20.0;;;16.0;;
21120;SDS011;12519;43.318;21.898;2023-06-14T05:04:51;20.0;;;16.0;;
21120;SDS011;12519;43.318;21.898;2023-06-14T05:09:28;20.0;;;16.0;;
21120;SDS011;12519;43.318;21.898;2023-06-14T05:14:04;20.0;;;16.0;;
21120;SDS011;12519;43.318;21.898;2023-06-14T05:18:41;14.0;;;12.0;;
21120;SDS011;12519;43.318;21.898;2023-06-14T05:23:18;14.0;;;12.0;;
21120;SDS011;12519;43.318;21.898;2023-06-14T05:27:54;9.0;;;9.0;;
21120;SDS011;12519;43.318;21.898;2023-06-14T05:32:31;9.0;;;9.0;;
21120;SDS011;12519;43.318;21.898;2023-06-14T05:37:07;10.0;;;10.0;;
21120;SDS011;12519;43.318;21.898;2023-06-14T05:41:44;10.0;;;10.0;;
21120;SDS011;12519;43.318;21.898;2023-06-14T05:46:21;11.0;;;10.0;;
21120;SDS011;12519;43.318;21.898;2023-06-14T05:50:59;11.0;;;10.0;;
21120;SDS011;12519;43.318;21.898;2023-06-14T05:55:35;14.0;;;11.0;;
21120;SDS011;12519;43.318;21.898;2023-06-14T06:00:14;14.0;;;11.0;;
21120;SDS011;12519;43.318;21.898;2023-06-14T06:04:52;16.0;;;12.0;;
21120;SDS011;12519;43.318;21.898;2023-06-14T06:09:29;16.0;;;12.0;;
21120;SDS011;12519;43.318;21.898;2023-06-14T06:14:06;16.0;;;12.0;;
21120;SDS011;12519;43.318;21.898;2023-06-14T06:18:43;12.0;;;9.0;;
21120;SDS011;12519;43.318;21.898;2023-06-14T06:23:19;12.0;;;9.0;;
21120;SDS011;12519;43.318;21.898;2023-06-14T06:27:56;7.0;;;6.0;;
21120;SDS011;12519;43.318;21.898;2023-06-14T06:32:34;7.0;;;6.0;;
21120;SDS011;12519;43.318;21.898;2023-06-14T06:37:11;8.0;;;6.0;;
21120;SDS011;12519;43.318;21.898;2023-06-14T06:41:49;8.0;;;6.0;;
21120;SDS011;12519;43.318;21.898;2023-06-14T06:46:25;8.0;;;5.0;;
21120;SDS011;12519;43.318;21.898;2023-06-14T06:51:02;8.0;;;5.0;;
21120;SDS011;12519;43.318;21.898;2023-06-14T06:55:39;7.0;;;5.0;;
21120;SDS011;12519;43.318;21.898;2023-06-14T07:00:18;7.0;;;5.0;;
21120;SDS011;12519;43.318;21.898;2023-06-14T07:04:56;6.0;;;5.0;;
21120;SDS011;12519;43.318;21.898;2023-06-14T07:09:33;6.0;;;5.0;;
21120;SDS011;12519;43.318;21.898;2023-06-14T07:14:10;6.0;;;5.0;;
21120;SDS011;12519;43.318;21.898;2023-06-14T07:18:47;6.0;;;6.0;;
21120;SDS011;12519;43.318;21.898;2023-06-14T07:23:23;6.0;;;6.0;;
21120;SDS011;12519;43.318;21.898;2023-06-14T07:28:00;6.0;;;6.0;;
21120;SDS011;12519;43.318;21.898;2023-06-14T07:32:38;6.0;;;6.0;;
21120;SDS011;12519;43.318;21.898;2023-06-14T07:37:14;8.0;;;8.0;;
21120;SDS011;12519;43.318;21.898;2023-06-14T07:41:51;8.0;;;8.0;;
21120;SDS011;12519;43.318;21.898;2023-06-14T07:46:28;10.0;;;9.0;;
21120;SDS011;12519;43.318;21.898;2023-06-14T07:51:04;10.0;;;9.0;;
21120;SDS011;12519;43.318;21.898;2023-06-14T07:55:41;10.0;;;8.0;;
21120;SDS011;12519;43.318;21.898;2023-06-14T08:00:20;10.0;;;8.0;;
21120;SDS011;12519;43.318;21.898;2023-06-14T08:04:57;9.0;;;7.0;;
21120;SDS011;12519;43.318;21.898;2023-06-14T08:09:35;9.0;;;7.0;;
21120;SDS011;12519;43.318;21.898;2023-06-14T08:14:12;9.0;;;7.0;;
21120;SDS011;12519;43.318;21.898;2023-06-14T08:18:49;9.0;;;8.0;;
21120;SDS011;12519;43.318;21.898;2023-06-14T08:23:25;9.0;;;8.0;;
21120;SDS011;12519;43.318;21.898;2023-06-14T08:28:02;9.0;;;8.0;;
21120;SDS011;12519;43.318;21.898;2023-06-14T08:32:38;9.0;;;8.0;;
21120;SDS011;12519;43.318;21.898;2023-06-14T08:37:15;10.0;;;8.0;;
21120;SDS011;12519;43.318;21.898;2023-06-14T08:41:53;10.0;;;8.0;;
21120;SDS011;12519;43.318;21.898;2023-06-14T08:46:33;10.0;;;8.0;;
21120;SDS011;12519;43.318;21.898;2023-06-14T08:51:14;10.0;;;8.0;;
21120;SDS011;12519;43.318;21.898;2023-06-14T08:55:55;9.0;;;8.0;;
21120;SDS011;12519;43.318;21.898;2023-06-14T09:00:32;9.0;;;8.0;;
21120;SDS011;12519;43.318;21.898;2023-06-14T09:05:10;8.0;;;8.0;;
21120;SDS011;12519;43.318;21.898;2023-06-14T09:09:47;8.0;;;8.0;;
21120;SDS011;12519;43.318;21.898;2023-06-14T09:14:24;8.0;;;8.0;;
21120;SDS011;12519;43.318;21.898;2023-06-14T09:19:01;8.0;;;8.0;;
21120;SDS011;12519;43.318;21.898;2023-06-14T09:23:40;8.0;;;8.0;;
21120;SDS011;12519;43.318;21.898;2023-06-14T09:28:27;9.0;;;8.0;;
21120;SDS011;12519;43.318;21.898;2023-06-14T09:33:04;9.0;;;8.0;;
21120;SDS011;12519;43.318;21.898;2023-06-14T09:37:41;8.0;;;8.0;;
21120;SDS011;12519;43.318;21.898;2023-06-14T09:42:19;8.0;;;8.0;;
21120;SDS011;12519;43.318;21.898;2023-06-14T09:46:56;8.0;;;7.0;;
21120;SDS011;12519;43.318;21.898;2023-06-14T09:51:36;8.0;;;7.0;;
21120;SDS011;12519;43.318;21.898;2023-06-14T09:56:31;7.0;;;6.0;;
21120;SDS011;12519;43.318;21.898;2023-06-14T10:01:18;7.0;;;6.0;;
21120;SDS011;12519;43.318;21.898;2023-06-14T10:06:07;6.0;;;6.0;;
21120;SDS011;12519;43.318;21.898;2023-06-14T10:10:46;6.0;;;6.0;;
21120;SDS011;12519;43.318;21.898;2023-06-14T10:15:42;7.0;;;6.0;;
21120;SDS011;12519;43.318;21.898;2023-06-14T10:21:04;7.0;;;6.0;;
21120;SDS011;12519;43.318;21.898;2023-06-14T10:26:01;8.0;;;6.0;;
21120;SDS011;12519;43.318;21.898;2023-06-14T10:30:38;8.0;;;6.0;;
21120;SDS011;12519;43.318;21.898;2023-06-14T10:35:16;7.0;;;6.0;;
21120;SDS011;12519;43.318;21.898;2023-06-14T10:39:53;7.0;;;6.0;;
21120;SDS011;12519;43.318;21.898;2023-06-14T10:44:39;7.0;;;6.0;;
21120;SDS011;12519;43.318;21.898;2023-06-14T10:49:40;6.0;;;5.0;;
21120;SDS011;12519;43.318;21.898;2023-06-14T10:54:27;6.0;;;5.0;;
21120;SDS011;12519;43.318;21.898;2023-06-14T10:59:03;6.0;;;4.0;;
21120;SDS011;12519;43.318;21.898;2023-06-14T11:03:52;6.0;;;4.0;;
21120;SDS011;12519;43.318;21.898;2023-06-14T11:10:10;5.0;;;4.0;;
21120;SDS011;12519;43.318;21.898;2023-06-14T11:15:14;4.0;;;4.0;;
21120;SDS011;12519;43.318;21.898;2023-06-14T11:20:07;4.0;;;4.0;;
21120;SDS011;12519;43.318;21.898;2023-06-14T11:24:46;4.0;;;4.0;;
21120;SDS011;12519;43.318;21.898;2023-06-14T11:29:22;4.0;;;4.0;;
21120;SDS011;12519;43.318;21.898;2023-06-14T11:34:00;4.0;;;4.0;;
21120;SDS011;12519;43.318;21.898;2023-06-14T11:38:37;4.0;;;4.0;;
21120;SDS011;12519;43.318;21.898;2023-06-14T11:43:14;4.0;;;4.0;;
21120;SDS011;12519;43.318;21.898;2023-06-14T11:47:50;4.0;;;4.0;;
21120;SDS011;12519;43.318;21.898;2023-06-14T11:52:28;4.0;;;4.0;;
21120;SDS011;12519;43.318;21.898;2023-06-14T11:57:06;4.0;;;4.0;;
21120;SDS011;12519;43.318;21.898;2023-06-14T12:01:44;4.0;;;4.0;;
21120;SDS011;12519;43.318;21.898;2023-06-14T12:06:29;4.0;;;4.0;;
21120;SDS011;12519;43.318;21.898;2023-06-14T12:11:13;4.0;;;4.0;;
21120;SDS011;12519;43.318;21.898;2023-06-14T12:15:55;4.0;;;4.0;;
21120;SDS011;12519;43.318;21.898;2023-06-14T12:20:33;4.0;;;4.0;;
21120;SDS011;12519;43.318;21.898;2023-06-14T12:25:23;3.0;;;3.0;;
21120;SDS011;12519;43.318;21.898;2023-06-14T12:30:10;3.0;;;3.0;;
21120;SDS011;12519;43.318;21.898;2023-06-14T12:34:48;3.0;;;3.0;;
21120;SDS011;12519;43.318;21.898;2023-06-14T12:39:25;4.0;;;4.0;;
21120;SDS011;12519;43.318;21.898;2023-06-14T12:44:02;4.0;;;4.0;;
21120;SDS011;12519;43.318;21.898;2023-06-14T12:48:39;6.0;;;4.0;;
21120;SDS011;12519;43.318;21.898;2023-06-14T12:53:16;6.0;;;4.0;;
21120;SDS011;12519;43.318;21.898;2023-06-14T12:57:53;5.0;;;4.0;;
21120;SDS011;12519;43.318;21.898;2023-06-14T13:02:29;5.0;;;4.0;;
21120;SDS011;12519;43.318;21.898;2023-06-14T13:07:06;4.0;;;4.0;;
21120;SDS011;12519;43.318;21.898;2023-06-14T13:11:42;4.0;;;4.0;;
21120;SDS011;12519;43.318;21.898;2023-06-14T13:16:19;4.0;;;4.0;;
21120;SDS011;12519;43.318;21.898;2023-06-14T13:20:56;4.0;;;4.0;;
21120;SDS011;12519;43.318;21.898;2023-06-14T13:25:33;5.0;;;4.0;;
21120;SDS011;12519;43.318;21.898;2023-06-14T13:30:12;5.0;;;4.0;;
21120;SDS011;12519;43.318;21.898;2023-06-14T13:34:49;5.0;;;4.0;;
21120;SDS011;12519;43.318;21.898;2023-06-14T13:39:26;6.0;;;4.0;;
21120;SDS011;12519;43.318;21.898;2023-06-14T13:44:04;6.0;;;4.0;;
21120;SDS011;12519;43.318;21.898;2023-06-14T13:48:40;6.0;;;5.0;;
21120;SDS011;12519;43.318;21.898;2023-06-14T13:53:16;6.0;;;5.0;;
21120;SDS011;12519;43.318;21.898;2023-06-14T13:57:53;6.0;;;6.0;;
21120;SDS011;12519;43.318;21.898;2023-06-14T14:02:29;6.0;;;6.0;;
21120;SDS011;12519;43.318;21.898;2023-06-14T14:07:07;6.0;;;6.0;;
21120;SDS011;12519;43.318;21.898;2023-06-14T14:11:44;6.0;;;6.0;;
21120;SDS011;12519;43.318;21.898;2023-06-14T14:16:20;6.0;;;6.0;;
21120;SDS011;12519;43.318;21.898;2023-06-14T14:20:57;6.0;;;6.0;;
21120;SDS011;12519;43.318;21.898;2023-06-14T14:25:34;6.0;;;5.0;;
21120;SDS011;12519;43.318;21.898;2023-06-14T14:30:13;6.0;;;5.0;;
21120;SDS011;12519;43.318;21.898;2023-06-14T14:34:50;6.0;;;5.0;;
21120;SDS011;12519;43.318;21.898;2023-06-14T14:39:27;6.0;;;5.0;;
21120;SDS011;12519;43.318;21.898;2023-06-14T14:44:06;6.0;;;5.0;;
21120;SDS011;12519;43.318;21.898;2023-06-14T14:48:42;5.0;;;5.0;;
21120;SDS011;12519;43.318;21.898;2023-06-14T14:53:19;5.0;;;5.0;;
21120;SDS011;12519;43.318;21.898;2023-06-14T14:57:56;5.0;;;4.0;;
21120;SDS011;12519;43.318;21.898;2023-06-14T15:02:32;5.0;;;4.0;;
21120;SDS011;12519;43.318;21.898;2023-06-14T15:07:09;5.0;;;4.0;;
21120;SDS011;12519;43.318;21.898;2023-06-14T15:11:46;5.0;;;4.0;;
21120;SDS011;12519;43.318;21.898;2023-06-14T15:16:23;6.0;;;4.0;;
21120;SDS011;12519;43.318;21.898;2023-06-14T15:21:00;6.0;;;4.0;;
21120;SDS011;12519;43.318;21.898;2023-06-14T15:25:36;6.0;;;5.0;;
21120;SDS011;12519;43.318;21.898;2023-06-14T15:30:13;6.0;;;5.0;;
21120;SDS011;12519;43.318;21.898;2023-06-14T15:34:50;6.0;;;5.0;;
21120;SDS011;12519;43.318;21.898;2023-06-14T15:39:26;6.0;;;6.0;;
21120;SDS011;12519;43.318;21.898;2023-06-14T15:44:05;6.0;;;6.0;;
21120;SDS011;12519;43.318;21.898;2023-06-14T15:48:47;6.0;;;6.0;;
21120;SDS011;12519;43.318;21.898;2023-06-14T15:53:23;6.0;;;6.0;;
21120;SDS011;12519;43.318;21.898;2023-06-14T15:58:00;8.0;;;8.0;;
21120;SDS011;12519;43.318;21.898;2023-06-14T16:02:37;8.0;;;8.0;;
21120;SDS011;12519;43.318;21.898;2023-06-14T16:07:14;10.0;;;9.0;;
21120;SDS011;12519;43.318;21.898;2023-06-14T16:11:50;10.0;;;9.0;;
21120;SDS011;12519;43.318;21.898;2023-06-14T16:16:27;10.0;;;8.0;;
21120;SDS011;12519;43.318;21.898;2023-06-14T16:21:04;10.0;;;8.0;;
21120;SDS011;12519;43.318;21.898;2023-06-14T16:25:40;10.0;;;7.0;;
21120;SDS011;12519;43.318;21.898;2023-06-14T16:30:17;10.0;;;7.0;;
21120;SDS011;12519;43.318;21.898;2023-06-14T16:34:54;10.0;;;7.0;;
21120;SDS011;12519;43.318;21.898;2023-06-14T16:39:30;11.0;;;8.0;;
21120;SDS011;12519;43.318;21.898;2023-06-14T16:44:07;11.0;;;8.0;;
21120;SDS011;12519;43.318;21.898;2023-06-14T16:48:43;12.0;;;8.0;;
21120;SDS011;12519;43.318;21.898;2023-06-14T16:53:19;12.0;;;8.0;;
21120;SDS011;12519;43.318;21.898;2023-06-14T16:57:57;11.0;;;8.0;;
21120;SDS011;12519;43.318;21.898;2023-06-14T17:02:33;11.0;;;8.0;;
21120;SDS011;12519;43.318;21.898;2023-06-14T17:07:10;10.0;;;7.0;;
21120;SDS011;12519;43.318;21.898;2023-06-14T17:11:46;10.0;;;7.0;;
21120;SDS011;12519;43.318;21.898;2023-06-14T17:16:23;11.0;;;8.0;;
21120;SDS011;12519;43.318;21.898;2023-06-14T17:20:59;11.0;;;8.0;;
21120;SDS011;12519;43.318;21.898;2023-06-14T17:25:36;12.0;;;10.0;;
21120;SDS011;12519;43.318;21.898;2023-06-14T17:30:14;12.0;;;10.0;;
21120;SDS011;12519;43.318;21.898;2023-06-14T17:34:51;12.0;;;10.0;;
21120;SDS011;12519;43.318;21.898;2023-06-14T17:39:28;10.0;;;9.0;;
21120;SDS011;12519;43.318;21.898;2023-06-14T17:44:04;10.0;;;9.0;;
21120;SDS011;12519;43.318;21.898;2023-06-14T17:48:41;9.0;;;8.0;;
21120;SDS011;12519;43.318;21.898;2023-06-14T17:53:17;9.0;;;8.0;;
21120;SDS011;12519;43.318;21.898;2023-06-14T17:57:54;12.0;;;11.0;;
21120;SDS011;12519;43.318;21.898;2023-06-14T18:02:31;12.0;;;11.0;;
21120;SDS011;12519;43.318;21.898;2023-06-14T18:07:07;16.0;;;14.0;;
21120;SDS011;12519;43.318;21.898;2023-06-14T18:11:44;16.0;;;14.0;;
21120;SDS011;12519;43.318;21.898;2023-06-14T18:16:20;14.0;;;11.0;;
21120;SDS011;12519;43.318;21.898;2023-06-14T18:20:57;14.0;;;11.0;;
21120;SDS011;12519;43.318;21.898;2023-06-14T18:25:34;14.0;;;11.0;;
21120;SDS011;12519;43.318;21.898;2023-06-14T18:30:12;11.0;;;8.0;;
21120;SDS011;12519;43.318;21.898;2023-06-14T18:34:49;11.0;;;8.0;;
21120;SDS011;12519;43.318;21.898;2023-06-14T18:39:26;11.0;;;8.0;;
21120;SDS011;12519;43.318;21.898;2023-06-14T18:44:03;11.0;;;8.0;;
21120;SDS011;12519;43.318;21.898;2023-06-14T18:48:40;11.0;;;9.0;;
21120;SDS011;12519;43.318;21.898;2023-06-14T18:53:16;11.0;;;9.0;;
21120;SDS011;12519;43.318;21.898;2023-06-14T18:57:53;10.0;;;10.0;;
21120;SDS011;12519;43.318;21.898;2023-06-14T19:02:29;10.0;;;10.0;;
21120;SDS011;12519;43.318;21.898;2023-06-14T19:07:06;10.0;;;10.0;;
21120;SDS011;12519;43.318;21.898;2023-06-14T19:11:42;10.0;;;10.0;;
21120;SDS011;12519;43.318;21.898;2023-06-14T19:16:18;17.0;;;14.0;;
21120;SDS011;12519;43.318;21.898;2023-06-14T19:20:54;17.0;;;14.0;;
21120;SDS011;12519;43.318;21.898;2023-06-14T19:25:30;17.0;;;14.0;;
21120;SDS011;12519;43.318;21.898;2023-06-14T19:30:08;24.0;;;17.0;;
21120;SDS011;12519;43.318;21.898;2023-06-14T19:34:45;24.0;;;17.0;;
21120;SDS011;12519;43.318;21.898;2023-06-14T19:39:21;17.0;;;14.0;;
21120;SDS011;12519;43.318;21.898;2023-06-14T19:43:58;17.0;;;14.0;;
21120;SDS011;12519;43.318;21.898;2023-06-14T19:48:34;10.0;;;10.0;;
21120;SDS011;12519;43.318;21.898;2023-06-14T19:53:11;10.0;;;10.0;;
21120;SDS011;12519;43.318;21.898;2023-06-14T19:57:47;12.0;;;10.0;;
21120;SDS011;12519;43.318;21.898;2023-06-14T20:02:24;12.0;;;10.0;;
21120;SDS011;12519;43.318;21.898;2023-06-14T20:07:00;14.0;;;11.0;;
21120;SDS011;12519;43.318;21.898;2023-06-14T20:11:37;14.0;;;11.0;;
21120;SDS011;12519;43.318;21.898;2023-06-14T20:16:15;14.0;;;12.0;;
21120;SDS011;12519;43.318;21.898;2023-06-14T20:20:52;14.0;;;12.0;;
21120;SDS011;12519;43.318;21.898;2023-06-14T20:25:28;14.0;;;12.0;;
21120;SDS011;12519;43.318;21.898;2023-06-14T20:30:08;14.0;;;12.0;;
21120;SDS011;12519;43.318;21.898;2023-06-14T20:34:46;14.0;;;12.0;;
21120;SDS011;12519;43.318;21.898;2023-06-14T20:39:23;14.0;;;12.0;;
21120;SDS011;12519;43.318;21.898;2023-06-14T20:44:00;14.0;;;12.0;;
21120;SDS011;12519;43.318;21.898;2023-06-14T20:48:37;14.0;;;12.0;;
21120;SDS011;12519;43.318;21.898;2023-06-14T20:53:13;14.0;;;12.0;;
21120;SDS011;12519;43.318;21.898;2023-06-14T20:57:50;16.0;;;13.0;;
21120;SDS011;12519;43.318;21.898;2023-06-14T21:02:27;16.0;;;13.0;;
21120;SDS011;12519;43.318;21.898;2023-06-14T21:07:04;17.0;;;14.0;;
21120;SDS011;12519;43.318;21.898;2023-06-14T21:11:41;17.0;;;14.0;;
21120;SDS011;12519;43.318;21.898;2023-06-14T21:16:18;14.0;;;12.0;;
21120;SDS011;12519;43.318;21.898;2023-06-14T21:20:54;14.0;;;12.0;;
21120;SDS011;12519;43.318;21.898;2023-06-14T21:25:30;14.0;;;12.0;;
21120;SDS011;12519;43.318;21.898;2023-06-14T21:30:09;12.0;;;10.0;;
21120;SDS011;12519;43.318;21.898;2023-06-14T21:34:51;12.0;;;10.0;;
21120;SDS011;12519;43.318;21.898;2023-06-14T21:39:27;10.0;;;9.0;;
21120;SDS011;12519;43.318;21.898;2023-06-14T21:44:04;10.0;;;9.0;;
21120;SDS011;12519;43.318;21.898;2023-06-14T21:48:41;9.0;;;8.0;;
21120;SDS011;12519;43.318;21.898;2023-06-14T21:53:17;9.0;;;8.0;;
21120;SDS011;12519;43.318;21.898;2023-06-14T21:57:54;10.0;;;9.0;;
21120;SDS011;12519;43.318;21.898;2023-06-14T22:02:30;10.0;;;9.0;;
21120;SDS011;12519;43.318;21.898;2023-06-14T22:07:06;12.0;;;10.0;;
21120;SDS011;12519;43.318;21.898;2023-06-14T22:11:44;12.0;;;10.0;;
21120;SDS011;12519;43.318;21.898;2023-06-14T22:16:21;10.0;;;9.0;;
21120;SDS011;12519;43.318;21.898;2023-06-14T22:20:58;10.0;;;9.0;;
21120;SDS011;12519;43.318;21.898;2023-06-14T22:25:34;10.0;;;9.0;;
21120;SDS011;12519;43.318;21.898;2023-06-14T22:30:13;9.0;;;8.0;;
21120;SDS011;12519;43.318;21.898;2023-06-14T22:34:52;9.0;;;8.0;;
21120;SDS011;12519;43.318;21.898;2023-06-14T22:39:29;10.0;;;8.0;;
21120;SDS011;12519;43.318;21.898;2023-06-14T22:44:06;10.0;;;8.0;;
21120;SDS011;12519;43.318;21.898;2023-06-14T22:48:42;10.0;;;9.0;;
21120;SDS011;12519;43.318;21.898;2023-06-14T22:53:19;10.0;;;9.0;;
21120;SDS011;12519;43.318;21.898;2023-06-14T22:57:55;10.0;;;8.0;;
21120;SDS011;12519;43.318;21.898;2023-06-14T23:02:32;10.0;;;8.0;;
21120;SDS011;12519;43.318;21.898;2023-06-14T23:07:09;10.0;;;8.0;;
21120;SDS011;12519;43.318;21.898;2023-06-14T23:11:46;10.0;;;8.0;;
21120;SDS011;12519;43.318;21.898;2023-06-14T23:16:23;10.0;;;8.0;;
21120;SDS011;12519;43.318;21.898;2023-06-14T23:21:00;10.0;;;8.0;;
21120;SDS011;12519;43.318;21.898;2023-06-14T23:25:37;10.0;;;8.0;;
21120;SDS011;12519;43.318;21.898;2023-06-14T23:30:14;10.0;;;7.0;;
21120;SDS011;12519;43.318;21.898;2023-06-14T23:34:50;10.0;;;7.0;;
21120;SDS011;12519;43.318;21.898;2023-06-14T23:39:27;11.0;;;7.0;;
21120;SDS011;12519;43.318;21.898;2023-06-14T23:44:04;11.0;;;7.0;;
21120;SDS011;12519;43.318;21.898;2023-06-14T23:48:40;12.0;;;7.0;;
21120;SDS011;12519;43.318;21.898;2023-06-14T23:53:17;12.0;;;7.0;;
21120;SDS011;12519;43.318;21.898;2023-06-14T23:57:53;11.0;;;7.0;;
